Time,TemperatureF,DewpointF,PressureIn,WindDirection,WindDirectionDegrees,WindSpeedMPH,WindSpeedGustMPH,Humidity,HourlyPrecipIn,Conditions,Clouds,dailyrainin,SoftwareType,DateUTC
2013-06-25 00:00:00,71.0,68.2,30.02,West,270,0.0,4.0,91,0.00,,,-99.99,Weather View 32 v60,2013-06-25 05:00:00,
2013-06-25 00:30:00,71.0,68.5,30.03,WNW,292,0.0,3.0,92,0.00,,,-99.99,Weather View 32 v60,2013-06-25 05:30:00,
2013-06-25 01:00:00,69.0,67.5,30.03,NW,315,0.0,3.0,95,0.00,,,-99.99,Weather View 32 v60,2013-06-25 06:00:00,
2013-06-25 01:30:00,68.0,66.5,30.00,SW,225,0.0,4.0,95,0.00,,,-99.99,Weather View 32 v60,2013-06-25 06:30:00,
2013-06-25 02:00:00,68.0,67.4,30.01,West,270,0.0,4.0,98,0.00,,,-99.99,Weather View 32 v60,2013-06-25 07:00:00,
2013-06-25 02:30:00,68.0,67.4,30.02,NNW,338,0.0,1.0,98,0.00,,,-99.99,Weather View 32 v60,2013-06-25 07:30:00,
2013-06-25 03:00:00,68.0,68.0,30.03,NNE,22,0.0,2.0,100,0.00,,,-99.99,Weather View 32 v60,2013-06-25 08:00:00,
2013-06-25 03:30:00,68.0,68.0,30.02,NNW,338,0.0,5.0,100,0.00,,,-99.99,Weather View 32 v60,2013-06-25 08:30:00,
2013-06-25 04:00:00,69.0,69.0,30.01,WSW,248,0.0,5.0,100,0.00,,,-99.99,Weather View 32 v60,2013-06-25 09:00:00,
2013-06-25 04:30:00,74.0,74.0,30.00,NW,315,0.0,5.0,100,0.00,,,-99.99,Weather View 32 v60,2013-06-25 09:30:00,
2013-06-25 05:00:00,74.0,74.0,30.02,NE,45,0.0,5.0,100,0.00,,,-99.99,Weather View 32 v60,2013-06-25 10:00:00,
2013-06-25 05:30:00,76.0,76.0,30.02,WNW,292,0.0,1.0,100,0.00,,,-99.99,Weather View 32 v60,2013-06-25 10:30:00,
2013-06-25 06:00:00,73.0,73.0,30.01,South,180,0.0,3.0,100,0.00,,,-99.99,Weather View 32 v60,2013-06-25 11:00:00,
2013-06-25 06:30:00,73.0,73.0,30.03,WSW,248,0.0,3.0,100,0.00,,,-99.99,Weather View 32 v60,2013-06-25 11:30:00,
2013-06-25 07:00:00,73.0,73.0,30.04,West,270,0.0,2.0,100,0.00,,,-99.99,Weather View 32 v60,2013-06-25 12:00:00,
2013-06-25 07:30:00,74.0,74.0,30.05,WNW,292,0.0,2.0,100,0.00,,,-99.99,Weather View 32 v60,2013-06-25 12:30:00,
2013-06-25 08:00:00,75.0,75.0,30.06,West,270,0.0,1.0,100,0.00,,,-99.99,Weather View 32 v60,2013-06-25 13:00:00,
2013-06-25 08:30:00,75.0,75.0,30.07,SW,225,0.0,2.0,100,0.00,,,-99.99,Weather View 32 v60,2013-06-25 13:30:00,
2013-06-25 09:00:00,76.0,76.0,30.07,SW,225,0.0,2.0,100,0.00,,,-99.99,Weather View 32 v60,2013-06-25 14:00:00,
2013-06-25 09:30:00,74.0,74.0,30.05,South,180,0.0,2.0,100,0.00,,,-99.99,Weather View 32 v60,2013-06-25 14:30:00,
2013-06-25 10:00:00,76.0,76.0,29.99,ESE,112,0.0,4.0,100,0.00,,,-99.99,Weather View 32 v60,2013-06-25 15:00:00,
2013-06-25 10:30:00,75.0,75.0,30.00,NNE,22,0.0,7.0,100,0.00,,,-99.99,Weather View 32 v60,2013-06-25 15:30:00,
2013-06-25 11:00:00,75.0,75.0,30.02,WNW,292,0.0,7.0,100,0.00,,,-99.99,Weather View 32 v60,2013-06-25 16:00:00,
2013-06-25 11:30:00,74.0,74.0,30.02,West,270,0.0,4.0,100,0.00,,,-99.99,Weather View 32 v60,2013-06-25 16:30:00,
2013-06-25 12:00:00,75.0,74.7,30.01,West,270,0.0,3.0,99,0.00,,,-99.99,Weather View 32 v60,2013-06-25 17:00:00,
2013-06-25 12:30:00,75.0,71.9,30.06,WNW,292,0.0,4.0,90,0.00,,,-99.99,Weather View 32 v60,2013-06-25 17:30:00,
2013-06-25 13:00:00,75.0,72.5,30.08,West,270,0.0,4.0,92,0.00,,,-99.99,Weather View 32 v60,2013-06-25 18:00:00,
2013-06-25 13:30:00,75.0,71.9,30.09,North,0,0.0,3.0,90,0.00,,,-99.99,Weather View 32 v60,2013-06-25 18:30:00,
2013-06-25 14:00:00,77.0,70.7,30.06,SW,225,0.0,2.0,81,0.00,,,-99.99,Weather View 32 v60,2013-06-25 19:00:00,
2013-06-25 14:30:00,79.0,72.3,30.02,ESE,112,0.0,1.0,80,0.00,,,-99.99,Weather View 32 v60,2013-06-25 19:30:00,
2013-06-25 15:00:00,82.0,73.7,30.00,South,180,0.0,1.0,76,0.00,,,-99.99,Weather View 32 v60,2013-06-25 20:00:00,
2013-06-25 15:30:00,82.0,73.7,29.99,NE,45,0.0,1.0,76,0.00,,,-99.99,Weather View 32 v60,2013-06-25 20:30:00,
2013-06-25 16:00:00,81.0,73.1,30.01,SE,135,0.0,1.0,77,0.00,,,-99.99,Weather View 32 v60,2013-06-25 21:00:00,
2013-06-25 16:30:00,82.0,74.4,30.02,SE,135,0.0,3.0,78,0.00,,,-99.99,Weather View 32 v60,2013-06-25 21:30:00,
2013-06-25 17:00:00,81.0,73.8,30.03,East,90,0.0,3.0,79,0.00,,,-99.99,Weather View 32 v60,2013-06-25 22:00:00,
2013-06-25 17:30:00,82.0,75.2,30.02,South,180,0.0,3.0,80,0.00,,,-99.99,Weather View 32 v60,2013-06-25 22:30:00,
2013-06-25 18:00:00,81.0,73.8,30.01,SSW,202,0.0,3.0,79,0.00,,,-99.99,Weather View 32 v60,2013-06-25 23:00:00,
2013-06-25 18:30:00,80.0,74.3,30.00,SW,225,0.0,5.0,83,0.00,,,-99.99,Weather View 32 v60,2013-06-25 23:30:00,
2013-06-25 19:00:00,80.0,74.3,29.99,South,180,0.0,5.0,83,0.00,,,-99.99,Weather View 32 v60,2013-06-26 00:00:00,
2013-06-25 19:30:00,79.0,73.7,29.98,ESE,112,0.0,0.0,84,0.00,,,-99.99,Weather View 32 v60,2013-06-26 00:30:00,
2013-06-25 20:00:00,77.0,72.1,29.97,ESE,112,0.0,0.0,85,0.00,,,-99.99,Weather View 32 v60,2013-06-26 01:00:00,
2013-06-25 20:30:00,76.0,71.8,29.98,South,180,0.0,2.0,87,0.00,,,-99.99,Weather View 32 v60,2013-06-26 01:30:00,
2013-06-25 21:00:00,75.0,71.5,29.98,South,180,0.0,2.0,89,0.00,,,-99.99,Weather View 32 v60,2013-06-26 02:00:00,
2013-06-25 21:30:00,74.0,71.2,29.98,South,180,0.0,3.0,91,0.00,,,-99.99,Weather View 32 v60,2013-06-26 02:30:00,
2013-06-25 22:00:00,74.0,71.8,29.97,South,180,0.0,3.0,93,0.00,,,-99.99,Weather View 32 v60,2013-06-26 03:00:00,
2013-06-25 22:30:00,73.0,71.2,29.97,South,180,0.0,0.0,94,0.00,,,-99.99,Weather View 32 v60,2013-06-26 03:30:00,
2013-06-25 23:00:00,73.0,71.5,29.97,SE,135,0.0,0.0,95,0.00,,,-99.99,Weather View 32 v60,2013-06-26 04:00:00,
2013-06-25 23:30:00,73.0,71.8,29.97,SSW,202,0.0,0.0,96,0.00,,,-99.99,Weather View 32 v60,2013-06-26 04:30:00,